Excellent Pescadores — HORK — position and weather

sailwx.info

Track history (hours):
 
Tides and Currents Weather Stations Pressure Air Temp Water Temp Dewpoint Dewpoint Depression Visibility Wind Speed Wind Dir Waves Ship Positions

Excellent Pescadores

Last reported at 2016-Apr-23 01:33 UTC. Time now 2016-May-03 12:25 UTC.
Position N 24°51' E 119°08'.
Warning: this ship's position is 10 days out of date.

Length 148 m; draft 5.2 m.

Type: Cargo ship. MMSI: 356291000.

Date/timePositionNaut miles runAvg speedWind from/ knotsBaromVisibWave heightAir tempDewpointWater temp
2016-Apr-23 01:33N 24°51' E 119°08'1413.0
2016-Apr-23 00:27N 24°46' E 118°53'3 3.0
2016-Apr-22 23:31N 24°45' E 118°50'0 0.0
2016-Apr-22 22:31N 24°45' E 118°50'0 0.0
2016-Apr-22 21:31N 24°45' E 118°50'0 0.1
2016-Apr-22 20:31N 24°45' E 118°50'0 0.1
2016-Apr-22 19:31N 24°45' E 118°50'0 0.0
2016-Apr-22 18:31N 24°45' E 118°50'0 0.0
2016-Apr-22 17:31N 24°45' E 118°50'0 0.1
2016-Apr-22 15:19N 24°45' E 118°50'0 0.1
2016-Apr-22 14:25N 24°45' E 118°50'0 0.0
2016-Apr-22 12:31N 24°45' E 118°50'0 0.0
2016-Apr-22 11:18N 24°45' E 118°50'0 0.0
2016-Apr-22 08:30N 24°45' E 118°50'0 0.0
2016-Apr-22 07:24N 24°45' E 118°50'0 0.0
2016-Apr-22 06:06N 24°45' E 118°50'0 0.0
2016-Apr-22 04:24N 24°45' E 118°50'0 0.0
2016-Apr-22 03:12N 24°45' E 118°50'0 0.1
2016-Apr-22 02:30N 24°45' E 118°50'0 0.1
2016-Apr-22 01:18N 24°45' E 118°50'0 0.1
2016-Apr-22 00:18N 24°45' E 118°50'0 0.0
2016-Apr-21 23:30N 24°45' E 118°50'0 0.0
2016-Apr-21 21:18N 24°45' E 118°50'0 0.0
2016-Apr-21 20:12N 24°45' E 118°50'0 0.0
2016-Apr-21 15:06N 24°45' E 118°50'0 0.0
2016-Apr-21 14:30N 24°45' E 118°50'0 0.0
2016-Apr-21 13:24N 24°45' E 118°50'0 0.0
2016-Apr-21 12:12N 24°45' E 118°50'0 0.0
2016-Apr-21 11:30N 24°45' E 118°50'0 0.0
2016-Apr-21 10:30N 24°45' E 118°50'0 0.0
2016-Apr-21 09:30N 24°45' E 118°50'0 0.1
2016-Apr-21 08:18N 24°45' E 118°50'0 0.1
2016-Apr-21 07:24N 24°45' E 118°50'0 0.0
2016-Apr-21 06:24N 24°45' E 118°50'0 0.0
2016-Apr-21 03:30N 24°45' E 118°50'0 0.0
2016-Apr-21 02:18N 24°45' E 118°50'0 0.0
2016-Apr-20 20:23N 24°45' E 118°50'0 0.1
2016-Apr-20 19:29N 24°45' E 118°50'0 0.1
2016-Apr-20 18:29N 24°45' E 118°50'0 0.1
2016-Apr-20 17:29N 24°45' E 118°50'0 0.0
2016-Apr-20 16:11N 24°45' E 118°50'0 0.1
2016-Apr-20 15:11N 24°45' E 118°50'0 0.1
2016-Apr-20 14:29N 24°45' E 118°50'0 0.1
2016-Apr-20 13:29N 24°45' E 118°50'0 0.0
2016-Apr-20 12:23N 24°45' E 118°50'0 0.0
2016-Apr-20 06:29N 24°45' E 118°50'0 0.1
2016-Apr-20 05:29N 24°45' E 118°50'0 0.0
2016-Apr-20 04:29N 24°45' E 118°50'0 0.0
2016-Apr-20 03:23N 24°45' E 118°50'0 0.0
2016-Apr-20 01:23N 24°45' E 118°50'0 0.1
2016-Apr-19 23:30N 24°45' E 118°50'8 1.1
2016-Apr-19 16:32N 24°49' E 118°43'0 0.0
2016-Apr-19 15:32N 24°49' E 118°43'0 0.0
2016-Apr-19 14:32N 24°49' E 118°43'0 0.0
2016-Apr-19 13:32N 24°49' E 118°43'0 0.0
2016-Apr-19 12:32N 24°49' E 118°43'0 0.0
2016-Apr-19 11:26N 24°49' E 118°43'0 0.0
2016-Apr-19 10:26N 24°49' E 118°43'0 0.0
2016-Apr-19 09:32N 24°49' E 118°43'0 0.0
2016-Apr-19 08:20N 24°49' E 118°43'0 0.0
2016-Apr-19 07:26N 24°49' E 118°43'0 0.0
2016-Apr-19 06:32N 24°49' E 118°43'0 0.0
2016-Apr-19 05:32N 24°49' E 118°43'0 0.0
2016-Apr-19 04:32N 24°49' E 118°43'0 0.0
2016-Apr-19 03:32N 24°49' E 118°43'0 0.0
2016-Apr-18 13:07N 24°49' E 118°43'0 0.3
2016-Apr-18 12:33N 24°49' E 118°43'6 5.7
2016-Apr-18 11:30N 24°46' E 118°49'1 1.2
2016-Apr-18 10:22N 24°45' E 118°49'0 0.0
2016-Apr-18 00:28N 24°45' E 118°49'0 0.0
2016-Apr-17 02:33N 24°45' E 118°49'0 0.1
2016-Apr-16 23:27N 24°45' E 118°49'0 0.0
2016-Apr-16 22:33N 24°45' E 118°49'0 0.0
2016-Apr-16 19:33N 24°45' E 118°49'0 0.0
2016-Apr-16 17:33N 24°45' E 118°49'0 0.1
2016-Apr-16 16:27N 24°45' E 118°49'0 0.0
2016-Apr-16 15:33N 24°45' E 118°49'0 0.1
2016-Apr-16 14:27N 24°45' E 118°49'0 0.0
2016-Apr-16 13:33N 24°45' E 118°49'0 0.1
2016-Apr-16 12:27N 24°45' E 118°49'0 0.0
2016-Apr-16 11:33N 24°45' E 118°49'0 0.0
2016-Apr-16 10:33N 24°45' E 118°49'0 0.0
2016-Apr-16 09:32N 24°45' E 118°49'0 0.0
2016-Apr-16 08:08N 24°45' E 118°49'0 0.0
2016-Apr-16 07:27N 24°45' E 118°49'0 0.0
2016-Apr-16 06:32N 24°45' E 118°49'0 0.0
2016-Apr-16 05:14N 24°45' E 118°49'0 0.1
2016-Apr-16 04:33N 24°45' E 118°49'0 0.1
2016-Apr-16 03:26N 24°45' E 118°49'0 0.1
2016-Apr-16 02:32N 24°45' E 118°49'0 0.0
2016-Apr-16 00:26N 24°45' E 118°49'0 0.0
2016-Apr-15 22:26N 24°45' E 118°49'0 0.1
2016-Apr-15 21:08N 24°45' E 118°49'0 0.0
2016-Apr-15 19:08N 24°45' E 118°49'0 0.0
2016-Apr-15 18:20N 24°45' E 118°49'0 0.1
2016-Apr-15 17:32N 24°45' E 118°49'0 0.1
2016-Apr-15 16:32N 24°45' E 118°49'0 0.1
2016-Apr-15 15:32N 24°45' E 118°49'0 0.0
2016-Apr-15 14:20N 24°45' E 118°49'0 0.0
2016-Apr-15 13:14N 24°45' E 118°49'0 0.0
2016-Apr-15 12:14N 24°45' E 118°49'0 0.0
2016-Apr-15 11:14N 24°45' E 118°49'0 0.1
2016-Apr-15 10:20N 24°45' E 118°49'0 0.0
2016-Apr-15 08:32N 24°45' E 118°49'2 1.6
2016-Apr-15 07:33N 24°43' E 118°49'1110.8
2016-Apr-15 06:33N 24°32' E 118°48'1211.1
2016-Apr-15 05:30N 24°22' E 118°43'  
Track history (hours):
 
Tides and Currents Weather Stations Pressure Air Temp Water Temp Dewpoint Dewpoint Depression Visibility Wind Speed Wind Dir Waves Ship Positions

Excellent Pescadores

Last reported at 2016-Apr-23 01:33 UTC. Time now 2016-May-03 12:25 UTC.
Position N 24°51' E 119°08'.
Warning: this ship's position is 10 days out of date.

Length 148 m; draft 5.2 m.

Type: Cargo ship. MMSI: 356291000.

Date/timePositionNaut miles runAvg speedWind from/ knotsBaromVisibWave heightAir tempDewpointWater temp
2016-Apr-23 01:33N 24°51' E 119°08'1413.0
2016-Apr-23 00:27N 24°46' E 118°53'3 3.0
2016-Apr-22 23:31N 24°45' E 118°50'0 0.0
2016-Apr-22 22:31N 24°45' E 118°50'0 0.0
2016-Apr-22 21:31N 24°45' E 118°50'0 0.1
2016-Apr-22 20:31N 24°45' E 118°50'0 0.1
2016-Apr-22 19:31N 24°45' E 118°50'0 0.0
2016-Apr-22 18:31N 24°45' E 118°50'0 0.0
2016-Apr-22 17:31N 24°45' E 118°50'0 0.1
2016-Apr-22 15:19N 24°45' E 118°50'0 0.1
2016-Apr-22 14:25N 24°45' E 118°50'0 0.0
2016-Apr-22 12:31N 24°45' E 118°50'0 0.0
2016-Apr-22 11:18N 24°45' E 118°50'0 0.0
2016-Apr-22 08:30N 24°45' E 118°50'0 0.0
2016-Apr-22 07:24N 24°45' E 118°50'0 0.0
2016-Apr-22 06:06N 24°45' E 118°50'0 0.0
2016-Apr-22 04:24N 24°45' E 118°50'0 0.0
2016-Apr-22 03:12N 24°45' E 118°50'0 0.1
2016-Apr-22 02:30N 24°45' E 118°50'0 0.1
2016-Apr-22 01:18N 24°45' E 118°50'0 0.1
2016-Apr-22 00:18N 24°45' E 118°50'0 0.0
2016-Apr-21 23:30N 24°45' E 118°50'0 0.0
2016-Apr-21 21:18N 24°45' E 118°50'0 0.0
2016-Apr-21 20:12N 24°45' E 118°50'0 0.0
2016-Apr-21 15:06N 24°45' E 118°50'0 0.0
2016-Apr-21 14:30N 24°45' E 118°50'0 0.0
2016-Apr-21 13:24N 24°45' E 118°50'0 0.0
2016-Apr-21 12:12N 24°45' E 118°50'0 0.0
2016-Apr-21 11:30N 24°45' E 118°50'0 0.0
2016-Apr-21 10:30N 24°45' E 118°50'0 0.0
2016-Apr-21 09:30N 24°45' E 118°50'0 0.1
2016-Apr-21 08:18N 24°45' E 118°50'0 0.1
2016-Apr-21 07:24N 24°45' E 118°50'0 0.0
2016-Apr-21 06:24N 24°45' E 118°50'0 0.0
2016-Apr-21 03:30N 24°45' E 118°50'0 0.0
2016-Apr-21 02:18N 24°45' E 118°50'0 0.0
2016-Apr-20 20:23N 24°45' E 118°50'0 0.1
2016-Apr-20 19:29N 24°45' E 118°50'0 0.1
2016-Apr-20 18:29N 24°45' E 118°50'0 0.1
2016-Apr-20 17:29N 24°45' E 118°50'0 0.0
2016-Apr-20 16:11N 24°45' E 118°50'0 0.1
2016-Apr-20 15:11N 24°45' E 118°50'0 0.1
2016-Apr-20 14:29N 24°45' E 118°50'0 0.1
2016-Apr-20 13:29N 24°45' E 118°50'0 0.0
2016-Apr-20 12:23N 24°45' E 118°50'0 0.0
2016-Apr-20 06:29N 24°45' E 118°50'0 0.1
2016-Apr-20 05:29N 24°45' E 118°50'0 0.0
2016-Apr-20 04:29N 24°45' E 118°50'0 0.0
2016-Apr-20 03:23N 24°45' E 118°50'0 0.0
2016-Apr-20 01:23N 24°45' E 118°50'0 0.1
2016-Apr-19 23:30N 24°45' E 118°50'8 1.1
2016-Apr-19 16:32N 24°49' E 118°43'0 0.0
2016-Apr-19 15:32N 24°49' E 118°43'0 0.0
2016-Apr-19 14:32N 24°49' E 118°43'0 0.0
2016-Apr-19 13:32N 24°49' E 118°43'0 0.0
2016-Apr-19 12:32N 24°49' E 118°43'0 0.0
2016-Apr-19 11:26N 24°49' E 118°43'0 0.0
2016-Apr-19 10:26N 24°49' E 118°43'0 0.0
2016-Apr-19 09:32N 24°49' E 118°43'0 0.0
2016-Apr-19 08:20N 24°49' E 118°43'0 0.0
2016-Apr-19 07:26N 24°49' E 118°43'0 0.0
2016-Apr-19 06:32N 24°49' E 118°43'0 0.0
2016-Apr-19 05:32N 24°49' E 118°43'0 0.0
2016-Apr-19 04:32N 24°49' E 118°43'0 0.0
2016-Apr-19 03:32N 24°49' E 118°43'0 0.0
2016-Apr-18 13:07N 24°49' E 118°43'0 0.3
2016-Apr-18 12:33N 24°49' E 118°43'6 5.7
2016-Apr-18 11:30N 24°46' E 118°49'1 1.2
2016-Apr-18 10:22N 24°45' E 118°49'0 0.0
2016-Apr-18 00:28N 24°45' E 118°49'0 0.0
2016-Apr-17 02:33N 24°45' E 118°49'0 0.1
2016-Apr-16 23:27N 24°45' E 118°49'0 0.0
2016-Apr-16 22:33N 24°45' E 118°49'0 0.0
2016-Apr-16 19:33N 24°45' E 118°49'0 0.0
2016-Apr-16 17:33N 24°45' E 118°49'0 0.1
2016-Apr-16 16:27N 24°45' E 118°49'0 0.0
2016-Apr-16 15:33N 24°45' E 118°49'0 0.1
2016-Apr-16 14:27N 24°45' E 118°49'0 0.0
2016-Apr-16 13:33N 24°45' E 118°49'0 0.1
2016-Apr-16 12:27N 24°45' E 118°49'0 0.0
2016-Apr-16 11:33N 24°45' E 118°49'0 0.0
2016-Apr-16 10:33N 24°45' E 118°49'0 0.0
2016-Apr-16 09:32N 24°45' E 118°49'0 0.0
2016-Apr-16 08:08N 24°45' E 118°49'0 0.0
2016-Apr-16 07:27N 24°45' E 118°49'0 0.0
2016-Apr-16 06:32N 24°45' E 118°49'0 0.0
2016-Apr-16 05:14N 24°45' E 118°49'0 0.1
2016-Apr-16 04:33N 24°45' E 118°49'0 0.1
2016-Apr-16 03:26N 24°45' E 118°49'0 0.1
2016-Apr-16 02:32N 24°45' E 118°49'0 0.0
2016-Apr-16 00:26N 24°45' E 118°49'0 0.0
2016-Apr-15 22:26N 24°45' E 118°49'0 0.1
2016-Apr-15 21:08N 24°45' E 118°49'0 0.0
2016-Apr-15 19:08N 24°45' E 118°49'0 0.0
2016-Apr-15 18:20N 24°45' E 118°49'0 0.1
2016-Apr-15 17:32N 24°45' E 118°49'0 0.1
2016-Apr-15 16:32N 24°45' E 118°49'0 0.1
2016-Apr-15 15:32N 24°45' E 118°49'0 0.0
2016-Apr-15 14:20N 24°45' E 118°49'0 0.0
2016-Apr-15 13:14N 24°45' E 118°49'0 0.0
2016-Apr-15 12:14N 24°45' E 118°49'0 0.0
2016-Apr-15 11:14N 24°45' E 118°49'0 0.1
2016-Apr-15 10:20N 24°45' E 118°49'0 0.0
2016-Apr-15 08:32N 24°45' E 118°49'2 1.6
2016-Apr-15 07:33N 24°43' E 118°49'1110.8
2016-Apr-15 06:33N 24°32' E 118°48'1211.1
2016-Apr-15 05:30N 24°22' E 118°43'  

Dump ship's entire track history